Check out our new PWSWeather beta!
PWSweather.com
Personal Weather Stations
Station Observations
KCTHAMDEN
Dunbar Hill, Hamden, CT 06514

Dunbar HillHamden, CT 06514

Lat: 41.365437, Lon: -72.956532

Elevation: 200

Station Type: Davis Vantage Pro2+

www.hamdenweather.com

High Low Average
Temperature 48.5°F9.2°C 34.2°F1.2°C 41.1°F5.1°C
Dew Point 47.4°F8.6°C 31.4°F-0.3°C 39.3°F4.1°C
Winds 11.7 mph 18.8 kmh Calm Calm 3.0 mph SE4.8 kmh SE
Wind Gusts 23.0 mph37.0 kmh -- 5.0 mph8.0 kmh
Humidity 97% 87% 93%
Pressure 30.31 in1026.4 mb 29.73 in1006.8 mb -
Precipitation 1.20 in30.5 mm - -
Hour Temp Dew Point Humidity Winds Wind Gusts Pressure Precip Precip Rate Daily Precip Total
12:00 AM 35.8°F2.1°C 32.8°F0.4°C 89% 0.3 mph E0.5 kmh E 4.0 mph6.4 kmh 30.31 in1026.4 mb - 0.00 in0.0 mm 0.00 in0.0 mm
12:15 AM 35.5°F1.9°C 32.6°F0.3°C 89% 0.2 mph ESE0.3 kmh ESE 3.0 mph4.8 kmh 30.31 in1026.4 mb - 0.00 in0.0 mm 0.00 in0.0 mm
12:30 AM 35.3°F1.8°C 32.4°F0.2°C 89% 0.4 mph WSW0.6 kmh WSW 1.0 mph1.6 kmh 30.31 in1026.4 mb - 0.00 in0.0 mm 0.00 in0.0 mm
12:45 AM 35.3°F1.8°C 32.7°F0.4°C 90% Calm Calm 1.0 mph1.6 kmh 30.31 in1026.4 mb - 0.00 in0.0 mm 0.00 in0.0 mm
01:00 AM 35.4°F1.9°C 32.8°F0.4°C 90% 0.5 mph ESE0.8 kmh ESE 1.0 mph1.6 kmh 30.31 in1026.4 mb - 0.00 in0.0 mm 0.00 in0.0 mm
01:15 AM 35.3°F1.8°C 32.7°F0.4°C 90% 0.8 mph E1.3 kmh E 1.0 mph1.6 kmh 30.30 in1026.1 mb - 0.00 in0.0 mm 0.00 in0.0 mm
01:30 AM 35.3°F1.8°C 32.6°F0.3°C 90% 0.8 mph N1.3 kmh N 2.0 mph3.2 kmh 30.31 in1026.4 mb - 0.00 in0.0 mm 0.00 in0.0 mm
01:45 AM 35.0°F1.7°C 32.4°F0.2°C 90% Calm Calm -- 30.31 in1026.4 mb - 0.00 in0.0 mm 0.00 in0.0 mm
02:00 AM 34.3°F1.3°C 31.4°F-0.3°C 89% 0.1 mph E0.2 kmh E 1.0 mph1.6 kmh 30.29 in1025.7 mb - 0.00 in0.0 mm 0.00 in0.0 mm
02:15 AM 34.3°F1.3°C 31.7°F-0.2°C 90% 0.5 mph E0.8 kmh E 2.0 mph3.2 kmh 30.30 in1026.1 mb - 0.00 in0.0 mm 0.00 in0.0 mm
02:30 AM 34.3°F1.3°C 31.9°F-0.1°C 91% Calm Calm -- 30.29 in1025.7 mb - 0.00 in0.0 mm 0.00 in0.0 mm
02:45 AM 34.5°F1.4°C 32.1°F0.1°C 91% 1.0 mph WSW1.6 kmh WSW 1.0 mph1.6 kmh 30.28 in1025.4 mb - 0.00 in0.0 mm 0.00 in0.0 mm
03:00 AM 34.8°F1.6°C 32.4°F0.2°C 91% 2.5 mph E4.0 kmh E 6.0 mph9.7 kmh 30.28 in1025.4 mb - 0.00 in0.0 mm 0.00 in0.0 mm
03:15 AM 34.8°F1.6°C 32.4°F0.2°C 91% 1.5 mph E2.4 kmh E 3.0 mph4.8 kmh 30.27 in1025.1 mb - 0.00 in0.0 mm 0.00 in0.0 mm
03:30 AM 34.7°F1.5°C 32.1°F0.1°C 90% 0.3 mph ESE0.5 kmh ESE 2.0 mph3.2 kmh 30.26 in1024.7 mb - 0.00 in0.0 mm 0.00 in0.0 mm
03:45 AM 34.5°F1.4°C 31.9°F-0.1°C 90% 1.1 mph E1.8 kmh E 2.0 mph3.2 kmh 30.25 in1024.4 mb - 0.00 in0.0 mm 0.00 in0.0 mm
04:00 AM 34.4°F1.3°C 31.8°F-0.1°C 90% 2.3 mph E3.7 kmh E 3.0 mph4.8 kmh 30.25 in1024.4 mb - 0.00 in0.0 mm 0.00 in0.0 mm
04:15 AM 34.5°F1.4°C 31.9°F-0.1°C 90% 1.9 mph N3.1 kmh N 3.0 mph4.8 kmh 30.24 in1024.0 mb - 0.00 in0.0 mm 0.00 in0.0 mm
04:30 AM 34.4°F1.3°C 31.8°F-0.1°C 90% 1.1 mph WSW1.8 kmh WSW 2.0 mph3.2 kmh 30.23 in1023.7 mb - 0.00 in0.0 mm 0.00 in0.0 mm
04:45 AM 34.3°F1.3°C 31.7°F-0.2°C 90% 1.7 mph ESE2.7 kmh ESE 7.0 mph11.3 kmh 30.23 in1023.7 mb - 0.00 in0.0 mm 0.00 in0.0 mm
05:00 AM 34.3°F1.3°C 31.9°F-0.1°C 91% 0.2 mph E0.3 kmh E 1.0 mph1.6 kmh 30.23 in1023.7 mb - 0.00 in0.0 mm 0.00 in0.0 mm
05:15 AM 34.2°F1.2°C 31.8°F-0.1°C 91% 2.9 mph SE4.7 kmh SE 6.0 mph9.7 kmh 30.23 in1023.7 mb - 0.00 in0.0 mm 0.00 in0.0 mm
05:30 AM 34.6°F1.4°C 32.2°F0.1°C 91% 3.1 mph E5.0 kmh E 8.0 mph12.9 kmh 30.22 in1023.4 mb - 0.00 in0.0 mm 0.00 in0.0 mm
05:45 AM 35.3°F1.8°C 32.9°F0.5°C 91% 4.4 mph ESE7.1 kmh ESE 8.0 mph12.9 kmh 30.21 in1023.0 mb - 0.00 in0.0 mm 0.00 in0.0 mm
06:00 AM 35.8°F2.1°C 33.4°F0.8°C 91% 3.0 mph E4.8 kmh E 6.0 mph9.7 kmh 30.21 in1023.0 mb - 0.00 in0.0 mm 0.00 in0.0 mm
06:15 AM 36.2°F2.3°C 33.8°F1.0°C 91% 4.1 mph E6.6 kmh E 10.0 mph16.1 kmh 30.20 in1022.7 mb - 0.00 in0.0 mm 0.00 in0.0 mm
06:30 AM 36.5°F2.5°C 34.1°F1.2°C 91% 4.9 mph E7.9 kmh E 7.0 mph11.3 kmh 30.20 in1022.7 mb - 0.00 in0.0 mm 0.00 in0.0 mm
06:45 AM 36.9°F2.7°C 34.5°F1.4°C 91% 4.0 mph WSW6.4 kmh WSW 9.0 mph14.5 kmh 30.19 in1022.4 mb - 0.00 in0.0 mm 0.00 in0.0 mm
07:00 AM 37.2°F2.9°C 34.5°F1.4°C 90% 2.5 mph E4.0 kmh E 8.0 mph12.9 kmh 30.20 in1022.7 mb - 0.00 in0.0 mm 0.00 in0.0 mm
07:15 AM 37.4°F3.0°C 34.8°F1.6°C 90% 1.8 mph E2.9 kmh E 4.0 mph6.4 kmh 30.19 in1022.4 mb - 0.00 in0.0 mm 0.00 in0.0 mm
07:30 AM 37.5°F3.1°C 34.6°F1.4°C 89% 4.3 mph ESE6.9 kmh ESE 6.0 mph9.7 kmh 30.18 in1022.0 mb - 0.00 in0.0 mm 0.00 in0.0 mm
07:45 AM 37.7°F3.2°C 34.8°F1.6°C 89% 0.7 mph ESE1.1 kmh ESE 2.0 mph3.2 kmh 30.19 in1022.4 mb - 0.00 in0.0 mm 0.00 in0.0 mm
08:00 AM 37.9°F3.3°C 34.9°F1.6°C 89% 1.5 mph E2.4 kmh E 8.0 mph12.9 kmh 30.19 in1022.4 mb - 0.00 in0.0 mm 0.00 in0.0 mm
08:15 AM 38.1°F3.4°C 35.2°F1.8°C 89% 1.8 mph SE2.9 kmh SE 7.0 mph11.3 kmh 30.18 in1022.0 mb - 0.00 in0.0 mm 0.00 in0.0 mm
08:30 AM 38.4°F3.6°C 35.2°F1.8°C 88% 4.2 mph ESE6.8 kmh ESE 9.0 mph14.5 kmh 30.18 in1022.0 mb - 0.00 in0.0 mm 0.00 in0.0 mm
08:45 AM 38.8°F3.8°C 35.6°F2.0°C 88% 5.7 mph E9.2 kmh E 8.0 mph12.9 kmh 30.17 in1021.7 mb - 0.00 in0.0 mm 0.00 in0.0 mm
09:00 AM 39.1°F3.9°C 35.8°F2.1°C 88% 3.2 mph E5.1 kmh E 4.0 mph6.4 kmh 30.17 in1021.7 mb - 0.00 in0.0 mm 0.00 in0.0 mm
09:15 AM 39.1°F3.9°C 35.5°F1.9°C 87% 4.6 mph ESE7.4 kmh ESE 7.0 mph11.3 kmh 30.16 in1021.3 mb - 0.00 in0.0 mm 0.00 in0.0 mm
09:30 AM 39.1°F3.9°C 35.6°F2.0°C 87% 4.9 mph ESE7.9 kmh ESE 9.0 mph14.5 kmh 30.16 in1021.3 mb - 0.00 in0.0 mm 0.00 in0.0 mm
09:45 AM 39.2°F4.0°C 35.7°F2.1°C 87% 1.3 mph WSW2.1 kmh WSW 3.0 mph4.8 kmh 30.15 in1021.0 mb - 0.00 in0.0 mm 0.00 in0.0 mm
11:30 AM 40.8°F4.9°C 39.2°F4.0°C 94% 1.5 mph WSW2.4 kmh WSW 3.0 mph4.8 kmh 30.07 in1018.3 mb - 0.03 in0.8 mm 0.08 in2.0 mm
11:45 AM 40.9°F4.9°C 39.3°F4.1°C 94% 1.4 mph E2.3 kmh E 6.0 mph9.7 kmh 30.06 in1017.9 mb - 0.01 in0.3 mm 0.09 in2.3 mm
12:00 PM 41.2°F5.1°C 39.6°F4.2°C 94% 4.1 mph SE6.6 kmh SE 8.0 mph12.9 kmh 30.05 in1017.6 mb - 0.02 in0.5 mm 0.11 in2.8 mm
12:15 PM 41.3°F5.2°C 40.0°F4.4°C 95% 4.6 mph E7.4 kmh E 9.0 mph14.5 kmh 30.04 in1017.3 mb - 0.01 in0.3 mm 0.12 in3.0 mm
12:30 PM 41.5°F5.3°C 40.2°F4.6°C 95% 2.1 mph SE3.4 kmh SE 4.0 mph6.4 kmh 30.02 in1016.6 mb - 0.03 in0.8 mm 0.15 in3.8 mm
12:45 PM 41.6°F5.3°C 40.3°F4.6°C 95% 4.3 mph E6.9 kmh E 8.0 mph12.9 kmh 30.00 in1015.9 mb - 0.05 in1.3 mm 0.20 in5.1 mm
01:00 PM 41.8°F5.4°C 40.5°F4.7°C 95% 2.3 mph N3.7 kmh N 3.0 mph4.8 kmh 29.97 in1014.9 mb - 0.04 in1.0 mm 0.24 in6.1 mm
01:15 PM 42.1°F5.6°C 41.0°F5.0°C 96% 5.6 mph SE9.0 kmh SE 12.0 mph19.3 kmh 29.95 in1014.2 mb - 0.01 in0.3 mm 0.24 in6.1 mm
01:30 PM 42.4°F5.8°C 41.3°F5.2°C 96% 3.2 mph SE5.1 kmh SE 9.0 mph14.5 kmh 29.94 in1013.9 mb - 0.00 in0.0 mm 0.24 in6.1 mm
01:45 PM 42.8°F6.0°C 41.7°F5.4°C 96% 1.3 mph E2.1 kmh E 6.0 mph9.7 kmh 29.93 in1013.5 mb - 0.01 in0.3 mm 0.25 in6.4 mm
02:00 PM 43.3°F6.3°C 42.2°F5.7°C 96% 0.3 mph E0.5 kmh E 1.0 mph1.6 kmh 29.92 in1013.2 mb - 0.01 in0.3 mm 0.26 in6.6 mm
02:15 PM 43.7°F6.5°C 42.6°F5.9°C 96% 2.9 mph SE4.7 kmh SE 6.0 mph9.7 kmh 29.90 in1012.5 mb - 0.00 in0.0 mm 0.26 in6.6 mm
02:30 PM 44.2°F6.8°C 43.1°F6.2°C 96% 3.9 mph E6.3 kmh E 8.0 mph12.9 kmh 29.89 in1012.2 mb - 0.01 in0.3 mm 0.27 in6.9 mm
02:45 PM 44.4°F6.9°C 43.3°F6.3°C 96% 3.9 mph E6.3 kmh E 6.0 mph9.7 kmh 29.88 in1011.9 mb - 0.00 in0.0 mm 0.27 in6.9 mm
03:00 PM 44.5°F6.9°C 43.4°F6.3°C 96% 1.8 mph SSE2.9 kmh SSE 6.0 mph9.7 kmh 29.86 in1011.2 mb - 0.01 in0.3 mm 0.28 in7.1 mm
03:15 PM 47.5°F8.6°C 46.7°F8.2°C 97% 11.7 mph SE18.8 kmh SE 14.0 mph22.5 kmh 29.85 in1010.8 mb - 0.03 in0.8 mm 0.31 in7.9 mm
03:30 PM 47.7°F8.7°C 46.9°F8.3°C 97% 5.4 mph SSE8.7 kmh SSE 12.0 mph19.3 kmh 29.84 in1010.5 mb - 0.01 in0.3 mm 0.32 in8.1 mm
03:45 PM 47.8°F8.8°C 47.0°F8.3°C 97% 6.6 mph SE10.6 kmh SE 16.0 mph25.7 kmh 29.83 in1010.2 mb - 0.03 in0.8 mm 0.35 in8.9 mm
04:00 PM 48.1°F8.9°C 47.3°F8.5°C 97% 5.2 mph SE8.4 kmh SE 12.0 mph19.3 kmh 29.83 in1010.2 mb - 0.02 in0.5 mm 0.37 in9.4 mm
04:15 PM 48.1°F8.9°C 47.3°F8.5°C 97% 9.9 mph SE15.9 kmh SE 19.0 mph30.6 kmh 29.81 in1009.5 mb - 0.01 in0.3 mm 0.38 in9.7 mm
04:30 PM 48.2°F9.0°C 47.4°F8.6°C 97% 9.3 mph SSE15.0 kmh SSE 16.0 mph25.7 kmh 29.80 in1009.1 mb - 0.01 in0.3 mm 0.39 in9.9 mm
04:45 PM 48.4°F9.1°C 47.3°F8.5°C 96% 9.3 mph SE15.0 kmh SE 12.0 mph19.3 kmh 29.79 in1008.8 mb - 0.01 in0.3 mm 0.40 in10.2 mm
05:00 PM 48.5°F9.2°C 47.4°F8.6°C 96% 8.0 mph SE12.9 kmh SE 14.0 mph22.5 kmh 29.79 in1008.8 mb - 0.04 in1.0 mm 0.44 in11.2 mm
05:15 PM 48.3°F9.1°C 47.2°F8.4°C 96% 7.1 mph SE11.4 kmh SE 9.0 mph14.5 kmh 29.77 in1008.1 mb - 0.04 in1.0 mm 0.49 in12.4 mm
05:30 PM 48.3°F9.1°C 47.2°F8.4°C 96% 9.8 mph SE15.8 kmh SE 23.0 mph37.0 kmh 29.76 in1007.8 mb - 0.05 in1.3 mm 0.53 in13.5 mm
05:45 PM 48.1°F8.9°C 47.0°F8.3°C 96% 10.4 mph SE16.7 kmh SE 19.0 mph30.6 kmh 29.74 in1007.1 mb - 0.05 in1.3 mm 0.58 in14.7 mm
06:00 PM 48.1°F8.9°C 47.0°F8.3°C 96% 4.0 mph SW6.4 kmh SW 5.0 mph8.0 kmh 29.78 in1008.5 mb - 0.20 in5.1 mm 0.78 in19.8 mm
06:15 PM 46.8°F8.2°C 45.7°F7.6°C 96% 2.8 mph SW4.5 kmh SW 6.0 mph9.7 kmh 29.77 in1008.1 mb - 0.26 in6.6 mm 1.01 in25.7 mm
06:30 PM 46.8°F8.2°C 45.7°F7.6°C 96% 0.2 mph S0.3 kmh S -- 29.77 in1008.1 mb - 0.06 in1.5 mm 1.07 in27.2 mm
06:45 PM 47.0°F8.3°C 45.9°F7.7°C 96% Calm Calm -- 29.76 in1007.8 mb - 0.02 in0.5 mm 1.09 in27.7 mm
07:00 PM 47.0°F8.3°C 45.9°F7.7°C 96% 1.2 mph SE1.9 kmh SE 7.0 mph11.3 kmh 29.75 in1007.5 mb - 0.01 in0.3 mm 1.09 in27.7 mm
07:15 PM 47.1°F8.4°C 46.0°F7.8°C 96% 0.1 mph SE0.2 kmh SE 2.0 mph3.2 kmh 29.75 in1007.5 mb - 0.08 in2.0 mm 1.17 in29.7 mm
07:30 PM 46.9°F8.3°C 45.8°F7.7°C 96% Calm Calm 1.0 mph1.6 kmh 29.75 in1007.5 mb - 0.03 in0.8 mm 1.19 in30.2 mm
07:45 PM 46.6°F8.1°C 45.5°F7.5°C 96% 0.4 mph SE0.6 kmh SE 1.0 mph1.6 kmh 29.75 in1007.5 mb - 0.01 in0.3 mm 1.20 in30.5 mm
08:00 PM 46.4°F8.0°C 45.3°F7.4°C 96% Calm Calm -- 29.74 in1007.1 mb - 0.00 in0.0 mm 1.20 in30.5 mm
08:15 PM 46.3°F7.9°C 45.2°F7.3°C 96% 0.2 mph SE0.3 kmh SE -- 29.74 in1007.1 mb - 0.00 in0.0 mm 1.20 in30.5 mm
08:30 PM 45.6°F7.6°C 44.5°F6.9°C 96% Calm Calm -- 29.74 in1007.1 mb - 0.00 in0.0 mm 1.20 in30.5 mm
08:45 PM 45.3°F7.4°C 44.2°F6.8°C 96% Calm Calm -- 29.74 in1007.1 mb - 0.00 in0.0 mm 1.20 in30.5 mm
09:00 PM 44.9°F7.2°C 43.8°F6.6°C 96% Calm Calm -- 29.74 in1007.1 mb - 0.00 in0.0 mm 1.20 in30.5 mm
09:15 PM 44.7°F7.1°C 43.6°F6.4°C 96% Calm Calm -- 29.74 in1007.1 mb - 0.00 in0.0 mm 1.20 in30.5 mm
09:30 PM 44.3°F6.8°C 43.2°F6.2°C 96% 0.5 mph SE0.8 kmh SE 1.0 mph1.6 kmh 29.74 in1007.1 mb - 0.00 in0.0 mm 1.20 in30.5 mm
09:45 PM 44.2°F6.8°C 43.1°F6.2°C 96% Calm Calm -- 29.73 in1006.8 mb - 0.00 in0.0 mm 1.20 in30.5 mm
10:00 PM 44.2°F6.8°C 43.2°F6.2°C 96% Calm Calm -- 29.73 in1006.8 mb - 0.00 in0.0 mm 1.20 in30.5 mm
10:15 PM 44.2°F6.8°C 43.4°F6.3°C 97% Calm Calm -- 29.74 in1007.1 mb - 0.00 in0.0 mm 1.20 in30.5 mm
10:30 PM 44.9°F7.2°C 44.1°F6.7°C 97% 0.3 mph SW0.5 kmh SW 2.0 mph3.2 kmh 29.74 in1007.1 mb - 0.00 in0.0 mm 1.20 in30.5 mm
10:45 PM 45.8°F7.7°C 45.0°F7.2°C 97% Calm Calm -- 29.74 in1007.1 mb - 0.00 in0.0 mm 1.20 in30.5 mm
11:00 PM 45.7°F7.6°C 44.9°F7.2°C 97% 1.0 mph SSW1.6 kmh SSW 3.0 mph4.8 kmh 29.74 in1007.1 mb - 0.00 in0.0 mm 1.20 in30.5 mm
11:15 PM 45.3°F7.4°C 44.5°F6.9°C 97% 1.6 mph WSW2.6 kmh WSW 3.0 mph4.8 kmh 29.74 in1007.1 mb - 0.00 in0.0 mm 1.20 in30.5 mm
11:30 PM 44.7°F7.1°C 43.9°F6.6°C 97% 0.6 mph SW1.0 kmh SW 2.0 mph3.2 kmh 29.75 in1007.5 mb - 0.00 in0.0 mm 1.20 in30.5 mm
11:45 PM 44.1°F6.7°C 43.3°F6.3°C 97% 0.9 mph SW1.4 kmh SW 7.0 mph11.3 kmh 29.75 in1007.5 mb - 0.00 in0.0 mm 1.20 in30.5 mm